sensor_id;sensor_type;location;lat;lon;timestamp;pressure;altitude;pressure_sealevel;temperature;humidity
71772;BME280;59606;52.138;5.424;2023-04-30T00:00:37;102522.09;;;8.92;80.06
71772;BME280;59606;52.138;5.424;2023-04-30T00:03:03;102519.59;;;8.87;80.11
71772;BME280;59606;52.138;5.424;2023-04-30T00:05:30;102511.91;;;8.83;80.06
71772;BME280;59606;52.138;5.424;2023-04-30T00:07:57;102511.06;;;8.82;80.55
71772;BME280;59606;52.138;5.424;2023-04-30T00:10:23;102511.97;;;8.80;79.92
71772;BME280;59606;52.138;5.424;2023-04-30T00:12:50;102508.59;;;8.76;80.50
71772;BME280;59606;52.138;5.424;2023-04-30T00:15:16;102512.16;;;8.72;80.50
71772;BME280;59606;52.138;5.424;2023-04-30T00:17:43;102508.72;;;8.68;80.46
71772;BME280;59606;52.138;5.424;2023-04-30T00:20:10;102515.72;;;8.65;79.94
71772;BME280;59606;52.138;5.424;2023-04-30T00:22:36;102507.19;;;8.58;80.18
71772;BME280;59606;52.138;5.424;2023-04-30T00:25:04;102514.19;;;8.56;80.40
71772;BME280;59606;52.138;5.424;2023-04-30T00:27:30;102505.59;;;8.53;80.41
71772;BME280;59606;52.138;5.424;2023-04-30T00:29:57;102510.84;;;8.49;80.56
71772;BME280;59606;52.138;5.424;2023-04-30T00:32:24;102516.09;;;8.46;80.69
71772;BME280;59606;52.138;5.424;2023-04-30T00:34:51;102518.69;;;8.45;80.29
71772;BME280;59606;52.138;5.424;2023-04-30T00:37:18;102515.31;;;8.41;80.61
71772;BME280;59606;52.138;5.424;2023-04-30T00:39:44;102511.91;;;8.38;80.26
71772;BME280;59606;52.138;5.424;2023-04-30T00:42:11;102513.69;;;8.34;80.90
71772;BME280;59606;52.138;5.424;2023-04-30T00:44:37;102516.34;;;8.31;80.97
71772;BME280;59606;52.138;5.424;2023-04-30T00:47:03;102517.28;;;8.27;81.20
71772;BME280;59606;52.138;5.424;2023-04-30T00:49:30;102518.25;;;8.21;81.04
71772;BME280;59606;52.138;5.424;2023-04-30T00:51:56;102520.88;;;8.20;81.05
71772;BME280;59606;52.138;5.424;2023-04-30T00:54:23;102530.41;;;8.19;81.48
71772;BME280;59606;52.138;5.424;2023-04-30T00:56:50;102530.41;;;8.18;81.30
71772;BME280;59606;52.138;5.424;2023-04-30T00:59:18;102529.59;;;8.16;81.58
71772;BME280;59606;52.138;5.424;2023-04-30T01:01:44;102535.66;;;8.15;81.48
71772;BME280;59606;52.138;5.424;2023-04-30T01:04:11;102533.16;;;8.12;82.43
71772;BME280;59606;52.138;5.424;2023-04-30T01:06:38;102533.16;;;8.10;82.28
71772;BME280;59606;52.138;5.424;2023-04-30T01:09:05;102534.09;;;8.06;82.06
71772;BME280;59606;52.138;5.424;2023-04-30T01:11:53;102531.59;;;8.01;82.50
71772;BME280;59606;52.138;5.424;2023-04-30T01:14:29;102528.13;;;8.01;82.57
71772;BME280;59606;52.138;5.424;2023-04-30T01:17:31;102529.91;;;7.99;82.18
71772;BME280;59606;52.138;5.424;2023-04-30T01:20:00;102533.34;;;7.98;81.88
71772;BME280;59606;52.138;5.424;2023-04-30T01:25:34;102536.09;;;7.90;82.29
71772;BME280;59606;52.138;5.424;2023-04-30T01:28:14;102543.06;;;7.87;82.98
71772;BME280;59606;52.138;5.424;2023-04-30T01:30:47;102542.31;;;7.82;82.29
71772;BME280;59606;52.138;5.424;2023-04-30T01:33:15;102541.50;;;7.78;82.67
71772;BME280;59606;52.138;5.424;2023-04-30T01:47:23;102544.31;;;7.63;82.61
71772;BME280;59606;52.138;5.424;2023-04-30T01:50:04;102545.16;;;7.65;83.17
71772;BME280;59606;52.138;5.424;2023-04-30T01:52:54;102546.00;;;7.65;83.19
71772;BME280;59606;52.138;5.424;2023-04-30T01:58:02;102550.25;;;7.69;83.21
71772;BME280;59606;52.138;5.424;2023-04-30T02:00:30;102551.97;;;7.70;83.47
71772;BME280;59606;52.138;5.424;2023-04-30T02:02:57;102551.97;;;7.72;83.54
71772;BME280;59606;52.138;5.424;2023-04-30T02:05:24;102554.50;;;7.73;84.01
71772;BME280;59606;52.138;5.424;2023-04-30T02:07:51;102551.03;;;7.76;84.80
71772;BME280;59606;52.138;5.424;2023-04-30T02:10:21;102557.09;;;7.75;84.91
71772;BME280;59606;52.138;5.424;2023-04-30T02:12:48;102556.22;;;7.74;84.71
71772;BME280;59606;52.138;5.424;2023-04-30T02:15:14;102558.84;;;7.73;84.97
71772;BME280;59606;52.138;5.424;2023-04-30T02:17:41;102556.31;;;7.70;84.96
71772;BME280;59606;52.138;5.424;2023-04-30T02:20:08;102546.88;;;7.64;85.29
71772;BME280;59606;52.138;5.424;2023-04-30T02:22:35;102552.13;;;7.60;85.21
71772;BME280;59606;52.138;5.424;2023-04-30T02:25:02;102549.53;;;7.60;85.24
71772;BME280;59606;52.138;5.424;2023-04-30T02:27:31;102548.72;;;7.56;84.67
71772;BME280;59606;52.138;5.424;2023-04-30T02:29:58;102547.03;;;7.53;85.06
71772;BME280;59606;52.138;5.424;2023-04-30T02:32:25;102542.78;;;7.49;85.27
71772;BME280;59606;52.138;5.424;2023-04-30T02:34:53;102537.69;;;7.43;85.02
71772;BME280;59606;52.138;5.424;2023-04-30T02:37:19;102546.34;;;7.41;84.69
71772;BME280;59606;52.138;5.424;2023-04-30T02:39:46;102540.34;;;7.37;84.86
71772;BME280;59606;52.138;5.424;2023-04-30T02:42:12;102548.19;;;7.32;85.35
71772;BME280;59606;52.138;5.424;2023-04-30T02:44:39;102549.13;;;7.28;85.01
71772;BME280;59606;52.138;5.424;2023-04-30T02:47:06;102543.97;;;7.24;85.37
71772;BME280;59606;52.138;5.424;2023-04-30T02:49:32;102543.16;;;7.20;85.41
71772;BME280;59606;52.138;5.424;2023-04-30T02:51:59;102543.22;;;7.19;85.56
71772;BME280;59606;52.138;5.424;2023-04-30T02:54:26;102539.75;;;7.17;85.27
71772;BME280;59606;52.138;5.424;2023-04-30T02:56:52;102546.69;;;7.18;85.86
71772;BME280;59606;52.138;5.424;2023-04-30T02:59:20;102536.34;;;7.15;85.95
71772;BME280;59606;52.138;5.424;2023-04-30T03:01:46;102536.41;;;7.12;85.61
71772;BME280;59606;52.138;5.424;2023-04-30T03:04:13;102534.69;;;7.09;85.85
71772;BME280;59606;52.138;5.424;2023-04-30T03:06:39;102536.44;;;7.07;85.96
71772;BME280;59606;52.138;5.424;2023-04-30T03:09:06;102533.88;;;7.04;85.71
71772;BME280;59606;52.138;5.424;2023-04-30T03:11:34;102533.06;;;7.00;86.51
71772;BME280;59606;52.138;5.424;2023-04-30T03:14:03;102538.28;;;6.97;86.34
71772;BME280;59606;52.138;5.424;2023-04-30T03:16:30;102533.16;;;6.94;86.43
71772;BME280;59606;52.138;5.424;2023-04-30T03:18:56;102537.50;;;6.91;86.20
71772;BME280;59606;52.138;5.424;2023-04-30T03:21:23;102543.59;;;6.88;86.65
71772;BME280;59606;52.138;5.424;2023-04-30T03:23:49;102534.97;;;6.86;86.25
71772;BME280;59606;52.138;5.424;2023-04-30T03:26:16;102537.59;;;6.83;86.36
71772;BME280;59606;52.138;5.424;2023-04-30T03:28:43;102533.31;;;6.82;86.48
71772;BME280;59606;52.138;5.424;2023-04-30T03:31:09;102528.16;;;6.79;86.32
71772;BME280;59606;52.138;5.424;2023-04-30T03:33:36;102532.53;;;6.74;86.07
71772;BME280;59606;52.138;5.424;2023-04-30T03:36:03;102529.09;;;6.70;86.17
71772;BME280;59606;52.138;5.424;2023-04-30T03:38:29;102530.03;;;6.68;86.71
71772;BME280;59606;52.138;5.424;2023-04-30T03:40:56;102526.63;;;6.63;86.81
71772;BME280;59606;52.138;5.424;2023-04-30T03:43:22;102528.34;;;6.60;86.80
71772;BME280;59606;52.138;5.424;2023-04-30T03:45:49;102530.94;;;6.60;86.74
71772;BME280;59606;52.138;5.424;2023-04-30T03:48:16;102519.75;;;6.57;86.42
71772;BME280;59606;52.138;5.424;2023-04-30T03:50:43;102520.69;;;6.53;86.27
71772;BME280;59606;52.138;5.424;2023-04-30T03:53:10;102530.22;;;6.51;86.26
71772;BME280;59606;52.138;5.424;2023-04-30T03:55:37;102519.84;;;6.49;86.12
71772;BME280;59606;52.138;5.424;2023-04-30T03:58:03;102525.06;;;6.48;86.26
71772;BME280;59606;52.138;5.424;2023-04-30T04:00:30;102519.06;;;6.44;86.47
71772;BME280;59606;52.138;5.424;2023-04-30T04:02:57;102524.25;;;6.43;86.75
71772;BME280;59606;52.138;5.424;2023-04-30T04:05:24;102526.81;;;6.43;86.37
71772;BME280;59606;52.138;5.424;2023-04-30T04:07:51;102526.00;;;6.41;86.57
71772;BME280;59606;52.138;5.424;2023-04-30T04:10:18;102525.16;;;6.38;86.44
71772;BME280;59606;52.138;5.424;2023-04-30T04:12:44;102519.13;;;6.38;86.90
71772;BME280;59606;52.138;5.424;2023-04-30T04:15:11;102525.16;;;6.37;86.63
71772;BME280;59606;52.138;5.424;2023-04-30T04:17:38;102526.06;;;6.34;86.91
71772;BME280;59606;52.138;5.424;2023-04-30T04:20:06;102523.47;;;6.33;86.78
71772;BME280;59606;52.138;5.424;2023-04-30T04:22:32;102518.31;;;6.30;87.14
71772;BME280;59606;52.138;5.424;2023-04-30T04:24:59;102520.06;;;6.29;87.01
71772;BME280;59606;52.138;5.424;2023-04-30T04:27:26;102519.22;;;6.29;87.01
71772;BME280;59606;52.138;5.424;2023-04-30T04:29:53;102523.53;;;6.27;87.28
71772;BME280;59606;52.138;5.424;2023-04-30T04:32:21;102517.50;;;6.26;87.27
71772;BME280;59606;52.138;5.424;2023-04-30T04:34:48;102515.81;;;6.24;87.77
71772;BME280;59606;52.138;5.424;2023-04-30T04:37:15;102523.59;;;6.24;87.38
71772;BME280;59606;52.138;5.424;2023-04-30T04:39:42;102522.69;;;6.23;87.04
71772;BME280;59606;52.138;5.424;2023-04-30T04:42:10;102520.13;;;6.23;87.43
71772;BME280;59606;52.138;5.424;2023-04-30T04:44:37;102525.28;;;6.23;87.32
71772;BME280;59606;52.138;5.424;2023-04-30T04:47:03;102527.88;;;6.23;87.35
71772;BME280;59606;52.138;5.424;2023-04-30T04:49:30;102528.72;;;6.25;87.17
71772;BME280;59606;52.138;5.424;2023-04-30T04:51:56;102536.47;;;6.27;87.14
71772;BME280;59606;52.138;5.424;2023-04-30T04:54:23;102539.06;;;6.28;87.53
71772;BME280;59606;52.138;5.424;2023-04-30T04:56:50;102531.25;;;6.30;88.03
71772;BME280;59606;52.138;5.424;2023-04-30T04:59:17;102527.78;;;6.32;88.04
71772;BME280;59606;52.138;5.424;2023-04-30T05:01:44;102535.50;;;6.37;88.72
71772;BME280;59606;52.138;5.424;2023-04-30T05:04:11;102531.16;;;6.42;88.59
71772;BME280;59606;52.138;5.424;2023-04-30T05:06:39;102528.53;;;6.45;88.86
71772;BME280;59606;52.138;5.424;2023-04-30T05:09:06;102530.22;;;6.49;89.05
71772;BME280;59606;52.138;5.424;2023-04-30T05:11:35;102526.72;;;6.53;89.24
71772;BME280;59606;52.138;5.424;2023-04-30T05:14:01;102524.13;;;6.55;89.58
71772;BME280;59606;52.138;5.424;2023-04-30T05:16:28;102518.88;;;6.59;90.03
71772;BME280;59606;52.138;5.424;2023-04-30T05:18:55;102520.50;;;6.68;90.96
71772;BME280;59606;52.138;5.424;2023-04-30T05:21:21;102522.94;;;6.80;91.71
71772;BME280;59606;52.138;5.424;2023-04-30T05:23:48;102530.53;;;6.96;91.74
71772;BME280;59606;52.138;5.424;2023-04-30T05:26:14;102532.03;;;7.14;91.14
71772;BME280;59606;52.138;5.424;2023-04-30T05:28:41;102535.88;;;7.48;90.99
71772;BME280;59606;52.138;5.424;2023-04-30T05:31:08;102527.97;;;8.10;89.80
71772;BME280;59606;52.138;5.424;2023-04-30T05:33:34;102537.63;;;8.95;88.53
71772;BME280;59606;52.138;5.424;2023-04-30T05:36:02;102528.75;;;9.81;86.36
71772;BME280;59606;52.138;5.424;2023-04-30T05:38:29;102530.72;;;10.73;82.81
71772;BME280;59606;52.138;5.424;2023-04-30T05:40:55;102524.63;;;11.60;79.00
71772;BME280;59606;52.138;5.424;2023-04-30T05:43:21;102525.28;;;12.19;76.11
71772;BME280;59606;52.138;5.424;2023-04-30T05:45:48;102524.16;;;12.52;74.07
71772;BME280;59606;52.138;5.424;2023-04-30T05:48:15;102534.00;;;12.68;72.93
71772;BME280;59606;52.138;5.424;2023-04-30T05:50:41;102536.28;;;12.78;71.31
71772;BME280;59606;52.138;5.424;2023-04-30T05:53:08;102545.22;;;12.72;70.25
71772;BME280;59606;52.138;5.424;2023-04-30T05:55:35;102548.84;;;12.43;71.19
71772;BME280;59606;52.138;5.424;2023-04-30T05:58:01;102549.06;;;11.85;71.49
71772;BME280;59606;52.138;5.424;2023-04-30T06:00:28;102553.31;;;11.03;73.46
71772;BME280;59606;52.138;5.424;2023-04-30T06:02:54;102553.16;;;10.13;75.87
71772;BME280;59606;52.138;5.424;2023-04-30T06:05:21;102561.69;;;9.47;78.86
71772;BME280;59606;52.138;5.424;2023-04-30T06:07:47;102560.63;;;9.15;81.20
71772;BME280;59606;52.138;5.424;2023-04-30T06:10:14;102561.97;;;8.91;82.53
71772;BME280;59606;52.138;5.424;2023-04-30T06:12:40;102561.50;;;8.72;83.87
71772;BME280;59606;52.138;5.424;2023-04-30T06:15:07;102567.47;;;8.77;84.24
71772;BME280;59606;52.138;5.424;2023-04-30T06:17:34;102571.19;;;8.64;85.44
71772;BME280;59606;52.138;5.424;2023-04-30T06:20:00;102564.16;;;8.69;86.08
71772;BME280;59606;52.138;5.424;2023-04-30T06:22:32;102574.47;;;8.73;86.71
71772;BME280;59606;52.138;5.424;2023-04-30T06:24:59;102567.41;;;8.80;86.63
71772;BME280;59606;52.138;5.424;2023-04-30T06:27:26;102575.25;;;8.79;85.88
71772;BME280;59606;52.138;5.424;2023-04-30T06:29:53;102566.50;;;8.83;86.32
71772;BME280;59606;52.138;5.424;2023-04-30T06:32:20;102575.88;;;8.90;87.61
71772;BME280;59606;52.138;5.424;2023-04-30T06:34:46;102573.94;;;9.00;87.43
71772;BME280;59606;52.138;5.424;2023-04-30T06:37:13;102567.69;;;9.08;87.23
71772;BME280;59606;52.138;5.424;2023-04-30T06:39:39;102572.94;;;9.07;86.76
71772;BME280;59606;52.138;5.424;2023-04-30T06:42:06;102565.00;;;9.13;87.11
71772;BME280;59606;52.138;5.424;2023-04-30T06:44:32;102568.41;;;9.16;86.66
71772;BME280;59606;52.138;5.424;2023-04-30T06:46:59;102569.97;;;9.24;87.15
71772;BME280;59606;52.138;5.424;2023-04-30T06:49:26;102564.53;;;9.34;86.95
71772;BME280;59606;52.138;5.424;2023-04-30T06:51:52;102567.75;;;9.45;87.81
71772;BME280;59606;52.138;5.424;2023-04-30T06:54:20;102562.31;;;9.56;87.97
71772;BME280;59606;52.138;5.424;2023-04-30T06:56:48;102558.63;;;9.66;86.43
71772;BME280;59606;52.138;5.424;2023-04-30T06:59:14;102567.03;;;9.78;86.74
71772;BME280;59606;52.138;5.424;2023-04-30T07:01:41;102562.66;;;9.80;86.26
71772;BME280;59606;52.138;5.424;2023-04-30T07:04:08;102566.13;;;9.79;85.64
71772;BME280;59606;52.138;5.424;2023-04-30T07:06:35;102565.06;;;9.87;85.24
71772;BME280;59606;52.138;5.424;2023-04-30T07:09:01;102565.06;;;9.87;85.58
71772;BME280;59606;52.138;5.424;2023-04-30T07:11:28;102569.03;;;10.02;84.67
71772;BME280;59606;52.138;5.424;2023-04-30T07:13:55;102575.88;;;10.06;84.55
71772;BME280;59606;52.138;5.424;2023-04-30T07:16:24;102574.75;;;10.17;83.99
71772;BME280;59606;52.138;5.424;2023-04-30T07:18:50;102571.94;;;10.24;83.68
71772;BME280;59606;52.138;5.424;2023-04-30T07:21:19;102571.69;;;10.35;83.30
71772;BME280;59606;52.138;5.424;2023-04-30T07:23:47;102578.44;;;10.44;82.47
71772;BME280;59606;52.138;5.424;2023-04-30T07:26:14;102577.38;;;10.51;82.18
71772;BME280;59606;52.138;5.424;2023-04-30T07:28:41;102574.69;;;10.54;81.64
71772;BME280;59606;52.138;5.424;2023-04-30T07:31:07;102578.16;;;10.54;81.45
71772;BME280;59606;52.138;5.424;2023-04-30T07:33:34;102585.84;;;10.59;81.11
71772;BME280;59606;52.138;5.424;2023-04-30T07:36:00;102574.44;;;10.63;81.12
71772;BME280;59606;52.138;5.424;2023-04-30T07:38:27;102578.47;;;10.75;80.85
71772;BME280;59606;52.138;5.424;2023-04-30T07:40:54;102576.69;;;10.77;80.42
71772;BME280;59606;52.138;5.424;2023-04-30T07:43:21;102584.31;;;10.83;79.79
71772;BME280;59606;52.138;5.424;2023-04-30T07:45:48;102571.16;;;10.88;80.33
71772;BME280;59606;52.138;5.424;2023-04-30T07:48:15;102572.78;;;10.92;80.10
71772;BME280;59606;52.138;5.424;2023-04-30T07:50:42;102573.50;;;10.97;80.44
71772;BME280;59606;52.138;5.424;2023-04-30T07:53:08;102574.03;;;11.08;79.08
71772;BME280;59606;52.138;5.424;2023-04-30T07:55:35;102573.03;;;11.14;79.29
71772;BME280;59606;52.138;5.424;2023-04-30T07:58:02;102573.63;;;11.22;78.48
71772;BME280;59606;52.138;5.424;2023-04-30T08:00:29;102576.91;;;11.28;78.66
71772;BME280;59606;52.138;5.424;2023-04-30T08:02:57;102569.69;;;11.37;78.18
71772;BME280;59606;52.138;5.424;2023-04-30T08:05:25;102572.13;;;11.43;77.75
71772;BME280;59606;52.138;5.424;2023-04-30T08:07:53;102560.66;;;11.48;78.73
71772;BME280;59606;52.138;5.424;2023-04-30T08:10:19;102560.88;;;11.69;78.97
71772;BME280;59606;52.138;5.424;2023-04-30T08:12:46;102559.03;;;11.72;77.02
71772;BME280;59606;52.138;5.424;2023-04-30T08:15:12;102566.19;;;11.66;77.99
71772;BME280;59606;52.138;5.424;2023-04-30T08:17:39;102560.78;;;11.72;77.38
71772;BME280;59606;52.138;5.424;2023-04-30T08:20:06;102559.78;;;11.76;77.62
71772;BME280;59606;52.138;5.424;2023-04-30T08:22:33;102554.44;;;11.80;77.05
71772;BME280;59606;52.138;5.424;2023-04-30T08:24:59;102553.38;;;11.86;76.33
71772;BME280;59606;52.138;5.424;2023-04-30T08:27:29;102557.66;;;11.89;76.11
71772;BME280;59606;52.138;5.424;2023-04-30T08:29:56;102559.16;;;11.96;75.75
71772;BME280;59606;52.138;5.424;2023-04-30T08:32:23;102560.75;;;12.00;75.33
71772;BME280;59606;52.138;5.424;2023-04-30T08:34:50;102558.78;;;12.08;74.79
71772;BME280;59606;52.138;5.424;2023-04-30T08:37:16;102555.44;;;12.03;74.47
71772;BME280;59606;52.138;5.424;2023-04-30T08:39:43;102555.25;;;12.09;74.89
71772;BME280;59606;52.138;5.424;2023-04-30T08:42:12;102551.72;;;12.10;73.26
71772;BME280;59606;52.138;5.424;2023-04-30T08:44:39;102563.34;;;12.26;74.20
71772;BME280;59606;52.138;5.424;2023-04-30T08:47:10;102556.97;;;12.35;74.42
71772;BME280;59606;52.138;5.424;2023-04-30T08:49:40;102559.19;;;12.46;73.12
71772;BME280;59606;52.138;5.424;2023-04-30T08:52:06;102561.81;;;12.46;72.42
71772;BME280;59606;52.138;5.424;2023-04-30T08:54:37;102557.97;;;12.56;72.95
71772;BME280;59606;52.138;5.424;2023-04-30T08:57:04;102553.97;;;12.71;72.41
71772;BME280;59606;52.138;5.424;2023-04-30T08:59:30;102552.72;;;12.81;72.07
71772;BME280;59606;52.138;5.424;2023-04-30T09:01:59;102555.69;;;12.95;71.06
71772;BME280;59606;52.138;5.424;2023-04-30T09:04:27;102561.19;;;12.88;70.54
71772;BME280;59606;52.138;5.424;2023-04-30T09:06:54;102553.56;;;12.82;68.66
71772;BME280;59606;52.138;5.424;2023-04-30T09:09:28;102552.00;;;12.78;70.20
71772;BME280;59606;52.138;5.424;2023-04-30T09:12:10;102547.09;;;12.92;68.72
71772;BME280;59606;52.138;5.424;2023-04-30T09:15:00;102547.38;;;13.08;69.82
71772;BME280;59606;52.138;5.424;2023-04-30T09:17:28;102543.53;;;13.16;68.38
71772;BME280;59606;52.138;5.424;2023-04-30T09:20:11;102548.53;;;13.23;67.99
71772;BME280;59606;52.138;5.424;2023-04-30T09:22:40;102535.03;;;13.35;67.85
71772;BME280;59606;52.138;5.424;2023-04-30T09:25:08;102547.06;;;13.39;67.60
71772;BME280;59606;52.138;5.424;2023-04-30T09:27:35;102542.31;;;13.49;67.62
71772;BME280;59606;52.138;5.424;2023-04-30T09:30:02;102532.63;;;13.51;66.58
71772;BME280;59606;52.138;5.424;2023-04-30T09:32:30;102535.81;;;13.59;65.82
71772;BME280;59606;52.138;5.424;2023-04-30T09:34:57;102530.38;;;13.63;65.85
71772;BME280;59606;52.138;5.424;2023-04-30T09:37:37;102531.06;;;13.68;65.69
71772;BME280;59606;52.138;5.424;2023-04-30T09:40:04;102526.47;;;13.74;64.79
71772;BME280;59606;52.138;5.424;2023-04-30T09:42:30;102532.50;;;13.76;64.97
71772;BME280;59606;52.138;5.424;2023-04-30T09:44:57;102532.19;;;13.83;63.64
71772;BME280;59606;52.138;5.424;2023-04-30T09:47:28;102534.41;;;13.93;63.94
71772;BME280;59606;52.138;5.424;2023-04-30T09:49:58;102527.63;;;13.88;63.57
71772;BME280;59606;52.138;5.424;2023-04-30T09:52:25;102525.84;;;13.89;63.54
71772;BME280;59606;52.138;5.424;2023-04-30T09:54:52;102521.19;;;13.96;65.84
71772;BME280;59606;52.138;5.424;2023-04-30T09:57:20;102521.44;;;14.10;63.98
71772;BME280;59606;52.138;5.424;2023-04-30T09:59:49;102514.97;;;14.19;64.85
71772;BME280;59606;52.138;5.424;2023-04-30T10:02:18;102515.81;;;14.19;63.19
71772;BME280;59606;52.138;5.424;2023-04-30T10:04:53;102503.47;;;14.21;64.70
71772;BME280;59606;52.138;5.424;2023-04-30T10:07:21;102515.41;;;14.28;64.52
71772;BME280;59606;52.138;5.424;2023-04-30T10:09:54;102507.34;;;14.33;64.12
71772;BME280;59606;52.138;5.424;2023-04-30T10:12:33;102506.78;;;14.45;63.74
71772;BME280;59606;52.138;5.424;2023-04-30T10:15:10;102505.56;;;14.54;63.23
71772;BME280;59606;52.138;5.424;2023-04-30T10:17:38;102499.97;;;14.61;63.58
71772;BME280;59606;52.138;5.424;2023-04-30T10:20:08;102501.47;;;14.67;62.68
71772;BME280;59606;52.138;5.424;2023-04-30T10:22:35;102492.75;;;14.67;62.55
71772;BME280;59606;52.138;5.424;2023-04-30T10:25:03;102500.63;;;14.67;61.99
71772;BME280;59606;52.138;5.424;2023-04-30T10:27:30;102497.22;;;14.65;61.98
71772;BME280;59606;52.138;5.424;2023-04-30T10:29:59;102492.69;;;14.68;61.07
71772;BME280;59606;52.138;5.424;2023-04-30T10:32:31;102495.69;;;14.79;62.36
71772;BME280;59606;52.138;5.424;2023-04-30T10:35:23;102493.13;;;14.78;61.88
71772;BME280;59606;52.138;5.424;2023-04-30T10:38:00;102491.16;;;14.83;60.63
71772;BME280;59606;52.138;5.424;2023-04-30T10:40:35;102490.41;;;14.98;60.67
71772;BME280;59606;52.138;5.424;2023-04-30T10:43:02;102482.19;;;15.06;60.45
71772;BME280;59606;52.138;5.424;2023-04-30T10:45:36;102477.66;;;15.09;60.25
71772;BME280;59606;52.138;5.424;2023-04-30T10:48:04;102486.22;;;15.13;60.11
71772;BME280;59606;52.138;5.424;2023-04-30T10:50:39;102488.63;;;15.18;59.15
71772;BME280;59606;52.138;5.424;2023-04-30T10:53:12;102472.34;;;15.28;60.81
71772;BME280;59606;52.138;5.424;2023-04-30T10:55:46;102469.38;;;15.36;59.83
71772;BME280;59606;52.138;5.424;2023-04-30T10:58:29;102464.25;;;15.33;59.02
71772;BME280;59606;52.138;5.424;2023-04-30T11:01:19;102464.88;;;15.38;60.31
71772;BME280;59606;52.138;5.424;2023-04-30T11:04:07;102447.38;;;15.56;60.68
71772;BME280;59606;52.138;5.424;2023-04-30T11:09:40;102444.78;;;15.73;59.30
71772;BME280;59606;52.138;5.424;2023-04-30T11:12:15;102444.13;;;15.86;60.15
71772;BME280;59606;52.138;5.424;2023-04-30T11:14:45;102441.88;;;15.95;59.06
71772;BME280;59606;52.138;5.424;2023-04-30T11:17:22;102440.03;;;15.97;58.27
71772;BME280;59606;52.138;5.424;2023-04-30T11:19:50;102435.63;;;15.98;58.66
71772;BME280;59606;52.138;5.424;2023-04-30T11:22:22;102438.94;;;16.01;58.32
71772;BME280;59606;52.138;5.424;2023-04-30T11:29:48;102433.25;;;16.26;58.08
71772;BME280;59606;52.138;5.424;2023-04-30T11:32:17;102430.44;;;16.30;57.96
71772;BME280;59606;52.138;5.424;2023-04-30T11:34:44;102415.34;;;16.33;57.09
71772;BME280;59606;52.138;5.424;2023-04-30T11:37:12;102411.47;;;16.40;57.36
71772;BME280;59606;52.138;5.424;2023-04-30T11:39:42;102413.56;;;16.49;56.67
71772;BME280;59606;52.138;5.424;2023-04-30T11:42:09;102406.44;;;16.52;56.81
71772;BME280;59606;52.138;5.424;2023-04-30T11:44:35;102403.50;;;16.58;58.02
71772;BME280;59606;52.138;5.424;2023-04-30T11:47:03;102410.09;;;16.65;56.99
71772;BME280;59606;52.138;5.424;2023-04-30T11:49:30;102402.72;;;16.71;56.38
71772;BME280;59606;52.138;5.424;2023-04-30T11:51:57;102399.06;;;16.74;56.29
71772;BME280;59606;52.138;5.424;2023-04-30T11:54:30;102399.50;;;16.82;55.38
71772;BME280;59606;52.138;5.424;2023-04-30T11:56:57;102392.72;;;16.78;55.26
71772;BME280;59606;52.138;5.424;2023-04-30T11:59:40;102394.06;;;16.85;56.00
71772;BME280;59606;52.138;5.424;2023-04-30T12:02:14;102388.19;;;16.96;55.07
71772;BME280;59606;52.138;5.424;2023-04-30T12:04:44;102381.06;;;16.98;54.58
71772;BME280;59606;52.138;5.424;2023-04-30T12:07:12;102388.03;;;16.99;55.44
71772;BME280;59606;52.138;5.424;2023-04-30T12:09:52;102382.59;;;17.02;54.58
71772;BME280;59606;52.138;5.424;2023-04-30T12:12:30;102372.56;;;17.09;54.43
71772;BME280;59606;52.138;5.424;2023-04-30T12:14:56;102376.63;;;17.14;54.55
71772;BME280;59606;52.138;5.424;2023-04-30T12:17:33;102373.25;;;16.96;54.84
71772;BME280;59606;52.138;5.424;2023-04-30T12:20:00;102368.03;;;16.81;54.30
71772;BME280;59606;52.138;5.424;2023-04-30T12:22:27;102368.94;;;16.95;54.63
71772;BME280;59606;52.138;5.424;2023-04-30T12:24:54;102359.81;;;17.17;53.45
71772;BME280;59606;52.138;5.424;2023-04-30T12:27:21;102362.28;;;17.34;53.12
71772;BME280;59606;52.138;5.424;2023-04-30T12:29:49;102364.81;;;17.36;52.94
71772;BME280;59606;52.138;5.424;2023-04-30T12:32:20;102361.53;;;17.47;53.12
71772;BME280;59606;52.138;5.424;2023-04-30T12:34:48;102361.38;;;17.50;50.73
71772;BME280;59606;52.138;5.424;2023-04-30T12:37:15;102358.59;;;17.37;52.23
71772;BME280;59606;52.138;5.424;2023-04-30T12:39:44;102358.59;;;17.37;52.55
71772;BME280;59606;52.138;5.424;2023-04-30T12:42:10;102354.59;;;17.46;53.28
71772;BME280;59606;52.138;5.424;2023-04-30T12:44:43;102351.59;;;17.66;52.82
71772;BME280;59606;52.138;5.424;2023-04-30T12:47:10;102348.81;;;17.83;53.01
71772;BME280;59606;52.138;5.424;2023-04-30T12:49:37;102349.00;;;17.95;52.44
71772;BME280;59606;52.138;5.424;2023-04-30T12:52:04;102348.25;;;17.93;51.80
71772;BME280;59606;52.138;5.424;2023-04-30T12:54:34;102351.19;;;17.88;52.28
71772;BME280;59606;52.138;5.424;2023-04-30T12:57:03;102348.06;;;17.96;50.81
71772;BME280;59606;52.138;5.424;2023-04-30T12:59:32;102339.19;;;17.97;50.49
71772;BME280;59606;52.138;5.424;2023-04-30T13:02:12;102332.78;;;18.15;52.26
71772;BME280;59606;52.138;5.424;2023-04-30T13:04:40;102320.91;;;18.22;50.91
71772;BME280;59606;52.138;5.424;2023-04-30T13:07:07;102325.03;;;18.26;50.15
71772;BME280;59606;52.138;5.424;2023-04-30T13:09:35;102321.22;;;18.18;50.01
71772;BME280;59606;52.138;5.424;2023-04-30T13:12:03;102314.63;;;17.96;50.05
71772;BME280;59606;52.138;5.424;2023-04-30T13:14:30;102326.03;;;17.82;50.00
71772;BME280;59606;52.138;5.424;2023-04-30T13:17:03;102318.88;;;17.84;50.85
71772;BME280;59606;52.138;5.424;2023-04-30T13:19:32;102309.81;;;18.03;49.52
71772;BME280;59606;52.138;5.424;2023-04-30T13:22:00;102312.03;;;18.23;48.42
71772;BME280;59606;52.138;5.424;2023-04-30T13:24:27;102300.41;;;18.40;47.67
71772;BME280;59606;52.138;5.424;2023-04-30T13:26:53;102301.84;;;18.58;46.68